Weather at Jacksonville Executive at Craig Airport

Public forecast

Using degrees Fahrenheit for public forecast. Weather courtesy of forecast.io.

Current aviation weather report (METAR) for Jacksonville Executive at Craig Airport

Retrieved 2020/09/30 17:53 UTC (47 minutes ago):

KCRG 301753Z 32008KT 10SM CLR 24/11 A3005 RMK AO2 SLP174 T02440111 10244 20172 58013

Aviation forecast (TAF) for Jacksonville Executive at Craig Airport

Retrieved 2020/09/30 18:22 UTC (18 minutes ago):

TAF KCRG 301720Z 3018/0118 03010KT P6SM SKC FM302300 00000KT P6SM SKC FM011400 32007KT P6SM SKC